createdAt,value
2023-04-20T00:01:29.403Z,99.90
2023-04-20T00:03:57.141Z,99.90
2023-04-20T00:06:29.915Z,99.90
2023-04-20T00:08:57.212Z,99.90
2023-04-20T00:11:24.369Z,99.90
2023-04-20T00:13:51.516Z,99.90
2023-04-20T00:16:19.035Z,99.90
2023-04-20T00:18:47.051Z,99.90
2023-04-20T00:21:15.354Z,99.90
2023-04-20T00:23:42.493Z,99.90
2023-04-20T00:26:09.738Z,99.90
2023-04-20T00:28:37.903Z,99.90
2023-04-20T00:31:07.944Z,99.90
2023-04-20T00:33:35.808Z,99.90
2023-04-20T00:36:03.304Z,99.90
2023-04-20T00:38:30.586Z,99.90
2023-04-20T00:41:00.018Z,99.90
2023-04-20T00:43:27.241Z,99.90
2023-04-20T00:45:54.517Z,99.90
2023-04-20T00:48:22.864Z,99.90
2023-04-20T00:50:50.890Z,99.90
2023-04-20T00:53:21.434Z,99.90
2023-04-20T00:55:51.332Z,99.90
2023-04-20T00:58:18.377Z,99.90
2023-04-20T01:00:45.685Z,99.90
2023-04-20T01:03:13.092Z,99.90
2023-04-20T01:05:40.962Z,99.90
2023-04-20T01:08:08.036Z,99.90
2023-04-20T01:10:35.399Z,99.90
2023-04-20T01:13:03.639Z,99.90
2023-04-20T01:15:31.249Z,99.90
2023-04-20T01:17:58.395Z,99.90
2023-04-20T01:20:25.747Z,99.90
2023-04-20T01:22:54.798Z,99.90
2023-04-20T01:25:23.429Z,99.90
2023-04-20T01:27:50.990Z,99.90
2023-04-20T01:30:18.008Z,99.90
2023-04-20T01:32:45.641Z,99.90
2023-04-20T01:35:13.127Z,99.90
2023-04-20T01:37:41.091Z,99.90
2023-04-20T01:40:11.247Z,99.90
2023-04-20T01:42:38.917Z,99.90
2023-04-20T01:45:06.562Z,99.90
2023-04-20T01:47:36.244Z,99.90
2023-04-20T01:50:03.501Z,99.90
2023-04-20T01:52:30.693Z,99.90
2023-04-20T01:54:57.891Z,99.90
2023-04-20T01:57:25.178Z,99.90
2023-04-20T01:59:52.295Z,99.90
2023-04-20T02:02:19.771Z,99.90
2023-04-20T02:04:46.929Z,99.90
2023-04-20T02:07:14.033Z,99.90
2023-04-20T02:09:41.336Z,99.90
2023-04-20T02:12:10.465Z,99.90
2023-04-20T02:14:39.878Z,99.90
2023-04-20T02:17:10.680Z,99.90
2023-04-20T02:19:38.145Z,99.90
2023-04-20T02:22:06.570Z,99.90
2023-04-20T02:24:33.656Z,99.90
2023-04-20T02:27:01.626Z,99.90
2023-04-20T02:29:28.638Z,99.90
2023-04-20T02:31:56.295Z,99.90
2023-04-20T02:34:23.666Z,99.90
2023-04-20T02:36:51.324Z,99.90
2023-04-20T02:39:18.959Z,99.90
2023-04-20T02:41:46.469Z,99.90
2023-04-20T02:44:13.617Z,99.90
2023-04-20T02:46:40.942Z,99.90
2023-04-20T02:49:08.557Z,99.90
2023-04-20T02:51:40.753Z,99.90
2023-04-20T02:54:07.931Z,99.90
2023-04-20T02:56:35.126Z,99.90
2023-04-20T02:59:06.424Z,99.90
2023-04-20T03:01:43.906Z,99.90
2023-04-20T03:04:15.487Z,99.90
2023-04-20T03:06:51.164Z,99.90
2023-04-20T03:09:24.055Z,99.90
2023-04-20T03:11:54.520Z,99.90
2023-04-20T03:14:38.895Z,99.90
2023-04-20T03:17:06.193Z,99.90
2023-04-20T03:19:33.302Z,99.90
2023-04-20T03:22:00.472Z,99.90
2023-04-20T03:24:27.864Z,99.90
2023-04-20T03:26:56.582Z,99.90
2023-04-20T03:29:35.185Z,99.90
2023-04-20T03:32:02.558Z,99.90
2023-04-20T03:34:29.913Z,99.90
2023-04-20T03:36:57.291Z,99.90
2023-04-20T03:39:24.592Z,99.90
2023-04-20T03:41:51.977Z,99.90
2023-04-20T03:44:19.036Z,99.90
2023-04-20T03:46:46.109Z,99.90
2023-04-20T03:49:13.285Z,99.90
2023-04-20T03:51:41.446Z,99.90
2023-04-20T03:54:08.633Z,99.90
2023-04-20T03:56:38.201Z,99.90
2023-04-20T03:59:05.332Z,99.90
2023-04-20T04:01:33.282Z,99.90
2023-04-20T04:04:00.846Z,99.90
2023-04-20T04:06:28.361Z,99.90
2023-04-20T04:08:55.768Z,99.90
2023-04-20T04:11:25.883Z,99.90
2023-04-20T04:13:53.385Z,99.90
2023-04-20T04:16:20.739Z,99.90
2023-04-20T04:18:50.222Z,99.90
2023-04-20T04:21:17.673Z,99.90
2023-04-20T04:23:55.169Z,99.90
2023-04-20T04:26:33.853Z,99.90
2023-04-20T04:29:04.894Z,99.90
2023-04-20T04:31:34.050Z,99.90
2023-04-20T04:34:08.104Z,99.90
2023-04-20T04:36:44.172Z,99.90
2023-04-20T04:39:14.102Z,99.90
2023-04-20T04:41:48.717Z,99.90
2023-04-20T04:44:28.927Z,99.90
2023-04-20T04:46:56.618Z,99.90
2023-04-20T04:49:26.870Z,99.90
2023-04-20T04:51:53.994Z,99.90
2023-04-20T04:54:21.341Z,99.90
2023-04-20T04:56:48.471Z,99.90
2023-04-20T04:59:15.931Z,99.90
2023-04-20T05:01:43.510Z,99.90
2023-04-20T05:04:11.957Z,99.90
2023-04-20T05:06:39.164Z,99.90
2023-04-20T05:09:06.322Z,99.90
2023-04-20T05:11:33.567Z,99.90
2023-04-20T05:14:02.727Z,99.90
2023-04-20T05:16:29.889Z,99.90
2023-04-20T05:18:57.404Z,99.90
2023-04-20T05:21:24.528Z,99.90
2023-04-20T05:23:51.735Z,99.90
2023-04-20T05:26:19.178Z,99.90
2023-04-20T05:28:46.464Z,99.90
2023-04-20T05:31:13.855Z,99.90
2023-04-20T05:33:41.484Z,99.90
2023-04-20T05:36:10.492Z,99.90
2023-04-20T05:38:37.936Z,99.90
2023-04-20T05:41:05.069Z,99.90
2023-04-20T05:43:32.386Z,99.90
2023-04-20T05:45:59.527Z,99.90
2023-04-20T05:48:29.851Z,99.90
2023-04-20T05:50:57.858Z,99.90
2023-04-20T05:53:24.982Z,99.90
2023-04-20T05:55:52.065Z,99.90
2023-04-20T05:58:19.863Z,99.90
2023-04-20T06:00:47.223Z,99.90
2023-04-20T06:03:14.594Z,99.90
2023-04-20T06:05:42.070Z,99.90
2023-04-20T06:08:09.293Z,99.90
2023-04-20T06:10:36.687Z,99.90
2023-04-20T06:13:04.129Z,99.90
2023-04-20T06:15:31.650Z,99.90
2023-04-20T06:17:59.092Z,99.90
2023-04-20T06:20:26.383Z,99.90
2023-04-20T06:22:53.833Z,99.90
2023-04-20T06:25:20.960Z,99.90
2023-04-20T06:27:49.673Z,99.90
2023-04-20T06:30:18.915Z,99.90
2023-04-20T06:32:46.116Z,99.90
2023-04-20T06:35:13.393Z,99.60
2023-04-20T06:37:40.903Z,99.20
2023-04-20T06:40:08.943Z,99.00
2023-04-20T06:42:37.719Z,98.10
2023-04-20T06:45:06.807Z,96.00
2023-04-20T06:47:34.561Z,95.00
2023-04-20T06:50:03.091Z,92.30
2023-04-20T06:52:31.549Z,91.10
2023-04-20T06:55:00.568Z,87.90
2023-04-20T06:57:28.004Z,88.30
2023-04-20T06:59:55.295Z,90.50
2023-04-20T07:02:22.536Z,91.30
2023-04-20T07:04:50.105Z,92.20
2023-04-20T07:07:17.373Z,93.80
2023-04-20T07:09:44.706Z,94.60
2023-04-20T07:12:15.775Z,94.60
2023-04-20T07:14:43.629Z,95.20
2023-04-20T07:17:10.630Z,95.20
2023-04-20T07:19:38.015Z,95.20
2023-04-20T07:22:05.114Z,94.80
2023-04-20T07:24:32.302Z,96.30
2023-04-20T07:26:59.389Z,97.20
2023-04-20T07:29:26.479Z,97.80
2023-04-20T07:31:53.846Z,96.30
2023-04-20T07:34:21.101Z,94.20
2023-04-20T07:36:48.716Z,88.60
2023-04-20T07:39:16.254Z,84.40
2023-04-20T07:41:44.089Z,84.40
2023-04-20T07:44:14.004Z,79.20
2023-04-20T07:46:42.405Z,76.00
2023-04-20T07:49:09.884Z,72.90
2023-04-20T07:51:37.179Z,71.10
2023-04-20T07:54:08.427Z,70.20
2023-04-20T07:56:36.040Z,69.70
2023-04-20T07:59:03.523Z,65.60
2023-04-20T08:01:31.506Z,64.50
2023-04-20T08:03:59.054Z,62.80
2023-04-20T08:06:27.542Z,62.10
2023-04-20T08:08:54.831Z,61.90
2023-04-20T08:11:22.444Z,62.10
2023-04-20T08:13:49.793Z,61.50
2023-04-20T08:16:16.907Z,59.70
2023-04-20T08:18:44.216Z,58.10
2023-04-20T08:21:11.650Z,58.50
2023-04-20T08:23:39.239Z,57.80
2023-04-20T08:26:06.456Z,57.20
2023-04-20T08:28:34.360Z,58.60
2023-04-20T08:31:01.982Z,60.60
2023-04-20T08:33:31.202Z,54.60
2023-04-20T08:35:58.430Z,56.60
2023-04-20T08:38:33.889Z,55.40
2023-04-20T08:41:01.573Z,57.90
2023-04-20T08:43:28.836Z,56.40
2023-04-20T08:45:59.988Z,61.00
2023-04-20T08:48:34.215Z,58.60
2023-04-20T08:51:02.129Z,66.00
2023-04-20T08:53:29.694Z,64.10
2023-04-20T08:55:57.682Z,66.40
2023-04-20T08:58:26.162Z,69.10
2023-04-20T09:00:53.287Z,70.40
2023-04-20T09:03:33.927Z,68.80
2023-04-20T09:06:01.312Z,72.70
2023-04-20T09:08:40.063Z,73.30
2023-04-20T09:11:07.756Z,72.10
2023-04-20T09:13:35.339Z,75.40
2023-04-20T09:16:11.364Z,74.30
2023-04-20T09:18:39.349Z,75.80
2023-04-20T09:21:10.051Z,82.00
2023-04-20T09:23:37.843Z,80.00
2023-04-20T09:26:05.699Z,81.70
2023-04-20T09:28:39.368Z,77.50
2023-04-20T09:31:07.155Z,75.60
2023-04-20T09:33:36.728Z,77.30
2023-04-20T09:36:05.714Z,77.20
2023-04-20T09:38:32.991Z,78.30
2023-04-20T09:41:01.929Z,76.60
2023-04-20T09:43:30.934Z,76.20
2023-04-20T09:45:58.171Z,77.00
2023-04-20T09:48:25.865Z,74.80
2023-04-20T09:50:54.204Z,73.10
2023-04-20T09:53:21.354Z,76.30
2023-04-20T09:55:50.367Z,75.00
2023-04-20T09:58:20.542Z,77.30
2023-04-20T10:00:47.799Z,73.80
2023-04-20T10:03:20.383Z,73.00
2023-04-20T10:05:47.995Z,77.30
2023-04-20T10:08:18.148Z,73.30
2023-04-20T10:10:47.785Z,75.50
2023-04-20T10:13:16.299Z,73.50
2023-04-20T10:15:43.648Z,75.30
2023-04-20T10:18:21.288Z,78.70
2023-04-20T10:20:48.727Z,75.00
2023-04-20T10:23:16.601Z,78.80
2023-04-20T10:25:55.004Z,73.10
2023-04-20T10:28:23.066Z,73.40
2023-04-20T10:30:52.706Z,75.70
2023-04-20T10:33:20.230Z,74.50
2023-04-20T10:35:49.783Z,72.90
2023-04-20T10:38:31.900Z,77.20
2023-04-20T10:41:08.411Z,78.90
2023-04-20T10:43:36.310Z,73.90
2023-04-20T10:46:13.046Z,74.20
2023-04-20T10:48:51.653Z,74.50
2023-04-20T10:51:20.250Z,76.20
2023-04-20T10:53:57.620Z,76.50
2023-04-20T10:56:25.612Z,82.10
2023-04-20T10:58:54.110Z,75.80
2023-04-20T11:01:21.728Z,79.30
2023-04-20T11:03:52.302Z,85.90
2023-04-20T11:06:20.423Z,77.50
2023-04-20T11:08:47.708Z,77.50
2023-04-20T11:11:21.142Z,79.60
2023-04-20T11:13:48.860Z,78.40
2023-04-20T11:16:17.789Z,80.40
2023-04-20T11:19:01.421Z,75.90
2023-04-20T11:21:44.261Z,80.50
2023-04-20T11:24:20.732Z,84.50
2023-04-20T11:26:50.861Z,79.10
2023-04-20T11:29:39.595Z,75.80
2023-04-20T11:32:09.245Z,72.10
2023-04-20T11:34:39.606Z,81.90
2023-04-20T11:37:10.620Z,75.50
2023-04-20T11:39:38.227Z,75.10
2023-04-20T11:42:06.357Z,73.60
2023-04-20T11:44:34.614Z,77.80
2023-04-20T11:47:02.110Z,77.00
2023-04-20T11:49:29.897Z,78.20
2023-04-20T11:51:57.060Z,76.80
2023-04-20T11:54:24.637Z,79.70
2023-04-20T11:56:52.005Z,79.10
2023-04-20T11:59:20.522Z,79.90
2023-04-20T12:01:48.505Z,77.00
2023-04-20T12:04:16.752Z,80.20
2023-04-20T12:06:44.409Z,82.10
2023-04-20T12:09:13.564Z,80.00
2023-04-20T12:11:41.053Z,76.00
2023-04-20T12:14:08.261Z,74.00
2023-04-20T12:16:36.033Z,77.70
2023-04-20T12:19:03.769Z,74.40
2023-04-20T12:21:32.593Z,78.00
2023-04-20T12:23:59.865Z,76.90
2023-04-20T12:26:37.214Z,75.00
2023-04-20T12:29:05.474Z,75.30
2023-04-20T12:31:33.070Z,75.60
2023-04-20T12:34:01.200Z,75.30
2023-04-20T12:36:28.535Z,77.10
2023-04-20T12:38:56.236Z,74.70
2023-04-20T12:41:24.221Z,75.00
2023-04-20T12:43:52.540Z,74.30
2023-04-20T12:46:19.898Z,75.50
2023-04-20T12:48:47.423Z,75.60
2023-04-20T12:51:15.661Z,74.80
2023-04-20T12:53:43.392Z,78.00
2023-04-20T12:56:11.012Z,75.40
2023-04-20T12:58:38.068Z,77.20
2023-04-20T13:01:05.895Z,79.50
2023-04-20T13:03:33.266Z,81.50
2023-04-20T13:06:01.103Z,74.70
2023-04-20T13:08:28.463Z,74.80
2023-04-20T13:10:55.722Z,77.50
2023-04-20T13:13:22.748Z,78.80
2023-04-20T13:15:50.203Z,78.00
2023-04-20T13:18:17.548Z,76.70
2023-04-20T13:20:44.683Z,75.20
2023-04-20T13:23:12.070Z,82.10
2023-04-20T13:25:39.426Z,79.90
2023-04-20T13:28:07.073Z,77.50
2023-04-20T13:30:34.207Z,77.20
2023-04-20T13:33:02.175Z,80.30
2023-04-20T13:35:29.740Z,82.20
2023-04-20T13:37:57.262Z,76.70
2023-04-20T13:40:24.585Z,79.10
2023-04-20T13:42:51.901Z,83.80
2023-04-20T13:45:19.130Z,79.50
2023-04-20T13:47:46.728Z,76.90
2023-04-20T13:50:14.059Z,77.70
2023-04-20T13:52:41.380Z,77.70
2023-04-20T13:55:09.043Z,75.50
2023-04-20T13:57:36.891Z,78.00
2023-04-20T14:00:10.245Z,76.50
2023-04-20T14:02:40.222Z,78.00
2023-04-20T14:05:08.756Z,77.30
2023-04-20T14:07:36.257Z,74.50
2023-04-20T14:10:03.551Z,78.90
2023-04-20T14:12:31.254Z,73.50
2023-04-20T14:14:59.446Z,76.90
2023-04-20T14:17:26.988Z,77.00
2023-04-20T14:19:54.288Z,78.40
2023-04-20T14:22:21.755Z,77.80
2023-04-20T14:24:49.414Z,82.00
2023-04-20T14:27:16.829Z,78.70
2023-04-20T14:29:44.147Z,80.00
2023-04-20T14:32:11.204Z,78.10
2023-04-20T14:34:38.289Z,77.90
2023-04-20T14:37:05.557Z,76.80
2023-04-20T14:39:32.900Z,78.30
2023-04-20T14:41:59.952Z,76.10
2023-04-20T14:44:27.114Z,77.70
2023-04-20T14:46:54.494Z,75.40
2023-04-20T14:49:22.178Z,77.60
2023-04-20T14:51:51.083Z,78.10
2023-04-20T14:54:18.690Z,75.10
2023-04-20T14:56:46.344Z,76.30
2023-04-20T14:59:13.911Z,78.80
2023-04-20T15:01:48.398Z,82.80
2023-04-20T15:04:26.399Z,76.50
2023-04-20T15:06:53.750Z,78.50
2023-04-20T15:09:20.813Z,78.30
2023-04-20T15:11:48.044Z,77.80
2023-04-20T15:14:15.229Z,76.50
2023-04-20T15:16:42.923Z,76.70
2023-04-20T15:19:10.414Z,76.40
2023-04-20T15:21:37.876Z,78.30
2023-04-20T15:24:05.546Z,77.20
2023-04-20T15:26:32.757Z,77.50
2023-04-20T15:28:59.995Z,78.60
2023-04-20T15:31:27.756Z,75.90
2023-04-20T15:33:57.573Z,75.20
2023-04-20T15:36:25.023Z,76.40
2023-04-20T15:38:54.536Z,80.50
2023-04-20T15:41:22.821Z,77.00
2023-04-20T15:43:50.257Z,81.80
2023-04-20T15:46:17.600Z,78.30
2023-04-20T15:48:45.116Z,77.80
2023-04-20T15:51:12.346Z,79.80
2023-04-20T15:53:39.662Z,78.70
2023-04-20T15:56:07.356Z,77.00
2023-04-20T15:58:34.649Z,77.90
2023-04-20T16:01:01.932Z,79.20
2023-04-20T16:03:29.473Z,79.50
2023-04-20T16:05:56.746Z,80.80
2023-04-20T16:08:23.866Z,84.90
2023-04-20T16:10:51.329Z,83.60
2023-04-20T16:13:18.481Z,82.60
2023-04-20T16:15:45.963Z,81.80
2023-04-20T16:18:13.142Z,82.80
2023-04-20T16:20:41.459Z,83.80
2023-04-20T16:23:08.980Z,83.10
2023-04-20T16:25:38.568Z,83.10
2023-04-20T16:28:06.278Z,82.80
2023-04-20T16:30:33.901Z,82.50
2023-04-20T16:33:01.162Z,82.30
2023-04-20T16:35:28.700Z,84.60
2023-04-20T16:37:56.709Z,83.90
2023-04-20T16:40:26.281Z,85.40
2023-04-20T16:42:53.642Z,85.20
2023-04-20T16:45:20.711Z,87.30
2023-04-20T16:47:48.221Z,89.00
2023-04-20T16:50:19.654Z,90.10
2023-04-20T16:52:47.752Z,90.10
2023-04-20T16:55:15.162Z,90.90
2023-04-20T16:57:42.580Z,90.00
2023-04-20T17:00:11.078Z,90.80
2023-04-20T17:02:38.627Z,91.70
2023-04-20T17:05:07.522Z,92.40
2023-04-20T17:07:38.723Z,92.20
2023-04-20T17:10:06.401Z,91.00
2023-04-20T17:12:34.006Z,90.60
2023-04-20T17:15:01.053Z,91.20
2023-04-20T17:17:28.850Z,91.60
2023-04-20T17:19:56.004Z,92.10
2023-04-20T17:22:25.759Z,92.10
2023-04-20T17:24:53.962Z,92.70
2023-04-20T17:27:23.220Z,92.70
2023-04-20T17:29:51.681Z,92.90
2023-04-20T17:32:19.199Z,93.30
2023-04-20T17:34:48.429Z,94.10
2023-04-20T17:37:23.323Z,95.00
2023-04-20T17:39:50.650Z,96.70
2023-04-20T17:42:18.301Z,98.40
2023-04-20T17:44:45.455Z,99.90
2023-04-20T17:47:15.791Z,99.90
2023-04-20T17:49:43.713Z,99.90
2023-04-20T17:52:15.015Z,99.90
2023-04-20T17:54:42.297Z,99.90
2023-04-20T17:57:09.474Z,99.90
2023-04-20T17:59:36.612Z,99.90
2023-04-20T18:02:03.930Z,99.90
2023-04-20T18:04:31.442Z,99.90
2023-04-20T18:06:59.159Z,99.90
2023-04-20T18:09:26.219Z,99.90
2023-04-20T18:11:53.755Z,99.90
2023-04-20T18:14:21.286Z,99.90
2023-04-20T18:16:52.092Z,99.90
2023-04-20T18:19:19.415Z,99.90
2023-04-20T18:21:47.274Z,99.90
2023-04-20T18:24:14.657Z,99.90
2023-04-20T18:26:42.165Z,99.90
2023-04-20T18:29:09.721Z,99.90
2023-04-20T18:31:37.186Z,99.90
2023-04-20T18:34:05.265Z,99.90
2023-04-20T18:36:32.755Z,99.90
2023-04-20T18:39:00.175Z,99.90
2023-04-20T18:41:27.886Z,99.90
2023-04-20T18:43:56.411Z,99.90
2023-04-20T18:46:23.645Z,99.90
2023-04-20T18:48:50.968Z,99.90
2023-04-20T18:51:18.337Z,99.90
2023-04-20T18:53:45.660Z,99.90
2023-04-20T18:56:13.094Z,99.90
2023-04-20T18:58:41.697Z,99.90
2023-04-20T19:01:09.251Z,99.90
2023-04-20T19:03:36.717Z,99.90
2023-04-20T19:06:04.243Z,99.90
2023-04-20T19:08:32.590Z,99.90
2023-04-20T19:11:00.851Z,99.90
2023-04-20T19:13:28.518Z,99.90
2023-04-20T19:15:57.864Z,99.90
2023-04-20T19:18:27.061Z,99.90
2023-04-20T19:20:54.861Z,99.90
2023-04-20T19:23:22.198Z,99.90
2023-04-20T19:25:49.656Z,99.90
2023-04-20T19:28:17.720Z,99.90
2023-04-20T19:30:45.399Z,99.90
2023-04-20T19:33:12.632Z,99.90
2023-04-20T19:35:41.849Z,99.90
2023-04-20T19:38:08.913Z,99.90
2023-04-20T19:40:36.397Z,99.90
2023-04-20T19:43:03.835Z,99.90
2023-04-20T19:45:31.014Z,99.90
2023-04-20T19:47:58.395Z,99.90
2023-04-20T19:50:26.554Z,99.90
2023-04-20T19:52:54.193Z,99.90
2023-04-20T19:55:21.908Z,99.90
2023-04-20T19:57:49.501Z,99.90
2023-04-20T20:00:17.066Z,99.90
2023-04-20T20:02:45.087Z,99.90
2023-04-20T20:05:12.625Z,99.90
2023-04-20T20:07:40.172Z,99.90
2023-04-20T20:10:07.701Z,99.90
2023-04-20T20:12:35.497Z,99.90
2023-04-20T20:15:04.633Z,99.90
2023-04-20T20:17:32.212Z,99.90
2023-04-20T20:20:00.456Z,99.90
2023-04-20T20:22:27.546Z,99.90
2023-04-20T20:24:54.913Z,99.90
2023-04-20T20:27:21.975Z,99.90
2023-04-20T20:29:49.292Z,99.90
2023-04-20T20:32:16.773Z,99.90
2023-04-20T20:34:44.289Z,99.90
2023-04-20T20:37:11.511Z,99.90
2023-04-20T20:39:39.294Z,99.90
2023-04-20T20:42:09.101Z,99.90
2023-04-20T20:44:38.886Z,99.90
2023-04-20T20:47:06.912Z,99.90
2023-04-20T20:49:36.886Z,99.90
2023-04-20T20:52:06.993Z,99.90
2023-04-20T20:54:34.218Z,99.90
2023-04-20T20:57:01.860Z,99.90
2023-04-20T20:59:29.009Z,99.90
2023-04-20T21:01:56.274Z,99.90
2023-04-20T21:04:23.752Z,99.90
2023-04-20T21:06:51.364Z,99.90
2023-04-20T21:09:19.238Z,99.90
2023-04-20T21:11:46.687Z,99.90
2023-04-20T21:14:13.908Z,99.90
2023-04-20T21:16:41.268Z,99.90
2023-04-20T21:19:08.562Z,99.90
2023-04-20T21:21:35.822Z,99.90
2023-04-20T21:24:03.073Z,99.90
2023-04-20T21:26:35.757Z,99.90
2023-04-20T21:29:03.855Z,99.90
2023-04-20T21:31:32.203Z,99.90
2023-04-20T21:34:00.209Z,99.90
2023-04-20T21:36:28.005Z,99.90
2023-04-20T21:38:55.252Z,99.90
2023-04-20T21:41:22.541Z,99.90
2023-04-20T21:43:53.345Z,99.90
2023-04-20T21:46:21.218Z,99.90
2023-04-20T21:48:48.511Z,99.90
2023-04-20T21:51:19.368Z,99.90
2023-04-20T21:53:47.322Z,99.90
2023-04-20T21:56:15.168Z,99.90
2023-04-20T21:58:42.350Z,99.90
2023-04-20T22:01:09.606Z,99.90
2023-04-20T22:03:38.153Z,99.90
2023-04-20T22:06:08.879Z,99.90
2023-04-20T22:08:40.120Z,99.90
2023-04-20T22:11:07.667Z,99.90
2023-04-20T22:13:35.836Z,99.90
2023-04-20T22:16:04.195Z,99.90
2023-04-20T22:18:31.381Z,99.90
2023-04-20T22:20:58.806Z,99.90
2023-04-20T22:23:26.104Z,99.90
2023-04-20T22:25:53.183Z,99.90
2023-04-20T22:28:20.637Z,99.90
2023-04-20T22:30:47.856Z,99.90
2023-04-20T22:33:15.355Z,99.90
2023-04-20T22:35:42.776Z,99.90
2023-04-20T22:38:09.920Z,99.90
2023-04-20T22:40:36.932Z,99.90
2023-04-20T22:43:04.200Z,99.90
2023-04-20T22:45:31.455Z,99.90
2023-04-20T22:47:59.090Z,99.90
2023-04-20T22:50:26.419Z,99.90
2023-04-20T22:52:53.707Z,99.90
2023-04-20T22:55:21.541Z,99.90
2023-04-20T22:57:48.659Z,99.90
2023-04-20T23:00:16.416Z,99.90
2023-04-20T23:02:43.696Z,99.90
2023-04-20T23:05:11.541Z,99.90
2023-04-20T23:07:39.649Z,99.90
2023-04-20T23:10:07.591Z,99.90
2023-04-20T23:12:34.833Z,99.90
2023-04-20T23:15:01.940Z,99.90
2023-04-20T23:17:29.153Z,99.90
2023-04-20T23:19:56.683Z,99.90
2023-04-20T23:22:24.053Z,99.90
2023-04-20T23:24:51.493Z,99.90
2023-04-20T23:27:18.663Z,99.90
2023-04-20T23:29:45.753Z,99.90
2023-04-20T23:32:13.093Z,99.90
2023-04-20T23:34:40.536Z,99.90
2023-04-20T23:37:07.609Z,99.90
2023-04-20T23:39:37.878Z,99.90
2023-04-20T23:42:05.955Z,99.90
2023-04-20T23:44:33.077Z,99.90
2023-04-20T23:47:00.227Z,99.90
2023-04-20T23:49:27.350Z,99.90
2023-04-20T23:51:54.622Z,99.90
2023-04-20T23:54:21.771Z,99.90
2023-04-20T23:56:49.018Z,99.90
2023-04-20T23:59:16.355Z,99.90
